sensor_id;sensor_type;location;lat;lon;timestamp;P1;durP1;ratioP1;P2;durP2;ratioP2
19448;SDS011;9863;49.404;8.246;2022-08-03T00:01:03;0.30;;;0.30;;
19448;SDS011;9863;49.404;8.246;2022-08-03T00:03:51;0.40;;;0.40;;
19448;SDS011;9863;49.404;8.246;2022-08-03T00:06:40;0.20;;;0.20;;
19448;SDS011;9863;49.404;8.246;2022-08-03T00:09:29;0.20;;;0.20;;
19448;SDS011;9863;49.404;8.246;2022-08-03T00:12:22;0.10;;;0.10;;
19448;SDS011;9863;49.404;8.246;2022-08-03T00:15:10;0.40;;;0.40;;
19448;SDS011;9863;49.404;8.246;2022-08-03T00:18:03;0.40;;;0.40;;
19448;SDS011;9863;49.404;8.246;2022-08-03T00:20:51;0.45;;;0.45;;
19448;SDS011;9863;49.404;8.246;2022-08-03T00:23:40;0.40;;;0.40;;
19448;SDS011;9863;49.404;8.246;2022-08-03T00:26:38;0.20;;;0.20;;
19448;SDS011;9863;49.404;8.246;2022-08-03T00:29:27;0.75;;;0.75;;
19448;SDS011;9863;49.404;8.246;2022-08-03T00:32:15;0.40;;;0.40;;
19448;SDS011;9863;49.404;8.246;2022-08-03T00:35:05;0.17;;;0.17;;
19448;SDS011;9863;49.404;8.246;2022-08-03T00:37:58;0.30;;;0.30;;
19448;SDS011;9863;49.404;8.246;2022-08-03T00:40:47;0.20;;;0.20;;
19448;SDS011;9863;49.404;8.246;2022-08-03T00:43:35;0.20;;;0.20;;
19448;SDS011;9863;49.404;8.246;2022-08-03T00:46:24;0.28;;;0.28;;
19448;SDS011;9863;49.404;8.246;2022-08-03T00:49:12;0.20;;;0.20;;
19448;SDS011;9863;49.404;8.246;2022-08-03T00:52:01;0.30;;;0.30;;
19448;SDS011;9863;49.404;8.246;2022-08-03T00:54:55;0.20;;;0.20;;
19448;SDS011;9863;49.404;8.246;2022-08-03T00:57:44;0.30;;;0.30;;
19448;SDS011;9863;49.404;8.246;2022-08-03T01:00:34;0.28;;;0.28;;
19448;SDS011;9863;49.404;8.246;2022-08-03T01:03:27;0.20;;;0.20;;
19448;SDS011;9863;49.404;8.246;2022-08-03T01:06:17;0.20;;;0.20;;
19448;SDS011;9863;49.404;8.246;2022-08-03T01:09:29;0.30;;;0.30;;
19448;SDS011;9863;49.404;8.246;2022-08-03T01:12:34;0.43;;;0.43;;
19448;SDS011;9863;49.404;8.246;2022-08-03T01:18:19;0.50;;;0.50;;
19448;SDS011;9863;49.404;8.246;2022-08-03T01:21:19;0.35;;;0.35;;
19448;SDS011;9863;49.404;8.246;2022-08-03T01:31:07;0.30;;;0.30;;
19448;SDS011;9863;49.404;8.246;2022-08-03T01:33:59;0.20;;;0.20;;
19448;SDS011;9863;49.404;8.246;2022-08-03T01:36:54;0.40;;;0.40;;
19448;SDS011;9863;49.404;8.246;2022-08-03T01:39:45;0.47;;;0.35;;
19448;SDS011;9863;49.404;8.246;2022-08-03T01:42:35;0.30;;;0.30;;
19448;SDS011;9863;49.404;8.246;2022-08-03T01:45:26;0.22;;;0.22;;
19448;SDS011;9863;49.404;8.246;2022-08-03T01:48:20;0.30;;;0.30;;
19448;SDS011;9863;49.404;8.246;2022-08-03T01:51:09;0.20;;;0.20;;
19448;SDS011;9863;49.404;8.246;2022-08-03T01:53:58;0.30;;;0.30;;
19448;SDS011;9863;49.404;8.246;2022-08-03T01:56:48;0.20;;;0.20;;
19448;SDS011;9863;49.404;8.246;2022-08-03T01:59:38;0.28;;;0.28;;
19448;SDS011;9863;49.404;8.246;2022-08-03T02:02:28;0.25;;;0.25;;
19448;SDS011;9863;49.404;8.246;2022-08-03T02:05:21;0.30;;;0.30;;
19448;SDS011;9863;49.404;8.246;2022-08-03T02:08:12;0.22;;;0.22;;
19448;SDS011;9863;49.404;8.246;2022-08-03T02:11:00;0.57;;;0.57;;
19448;SDS011;9863;49.404;8.246;2022-08-03T02:13:50;0.30;;;0.30;;
19448;SDS011;9863;49.404;8.246;2022-08-03T02:16:38;0.40;;;0.40;;
19448;SDS011;9863;49.404;8.246;2022-08-03T02:19:27;0.30;;;0.30;;
19448;SDS011;9863;49.404;8.246;2022-08-03T02:22:21;0.35;;;0.35;;
19448;SDS011;9863;49.404;8.246;2022-08-03T02:25:12;0.43;;;0.43;;
19448;SDS011;9863;49.404;8.246;2022-08-03T02:28:05;0.35;;;0.35;;
19448;SDS011;9863;49.404;8.246;2022-08-03T02:31:00;0.22;;;0.22;;
19448;SDS011;9863;49.404;8.246;2022-08-03T02:33:53;0.40;;;0.40;;
19448;SDS011;9863;49.404;8.246;2022-08-03T02:36:48;0.40;;;0.40;;
19448;SDS011;9863;49.404;8.246;2022-08-03T02:39:39;0.38;;;0.38;;
19448;SDS011;9863;49.404;8.246;2022-08-03T02:42:30;0.40;;;0.40;;
19448;SDS011;9863;49.404;8.246;2022-08-03T02:45:20;0.50;;;0.50;;
19448;SDS011;9863;49.404;8.246;2022-08-03T02:48:11;0.50;;;0.47;;
19448;SDS011;9863;49.404;8.246;2022-08-03T02:51:02;0.30;;;0.30;;
19448;SDS011;9863;49.404;8.246;2022-08-03T02:53:51;0.50;;;0.50;;
19448;SDS011;9863;49.404;8.246;2022-08-03T02:56:41;0.50;;;0.50;;
19448;SDS011;9863;49.404;8.246;2022-08-03T02:59:32;0.30;;;0.30;;
19448;SDS011;9863;49.404;8.246;2022-08-03T03:02:21;0.52;;;0.52;;
19448;SDS011;9863;49.404;8.246;2022-08-03T03:05:11;0.40;;;0.40;;
19448;SDS011;9863;49.404;8.246;2022-08-03T03:08:20;0.77;;;0.68;;
19448;SDS011;9863;49.404;8.246;2022-08-03T03:11:14;0.43;;;0.40;;
19448;SDS011;9863;49.404;8.246;2022-08-03T03:14:05;0.25;;;0.25;;
19448;SDS011;9863;49.404;8.246;2022-08-03T03:16:55;0.60;;;0.60;;
19448;SDS011;9863;49.404;8.246;2022-08-03T03:19:44;0.40;;;0.40;;
19448;SDS011;9863;49.404;8.246;2022-08-03T03:22:33;0.47;;;0.40;;
19448;SDS011;9863;49.404;8.246;2022-08-03T03:25:21;0.45;;;0.45;;
19448;SDS011;9863;49.404;8.246;2022-08-03T03:28:11;0.47;;;0.45;;
19448;SDS011;9863;49.404;8.246;2022-08-03T03:30:59;0.32;;;0.30;;
19448;SDS011;9863;49.404;8.246;2022-08-03T03:33:48;0.90;;;0.88;;
19448;SDS011;9863;49.404;8.246;2022-08-03T03:36:36;0.75;;;0.70;;
19448;SDS011;9863;49.404;8.246;2022-08-03T03:39:25;0.28;;;0.28;;
19448;SDS011;9863;49.404;8.246;2022-08-03T03:42:13;0.50;;;0.50;;
19448;SDS011;9863;49.404;8.246;2022-08-03T03:45:03;0.50;;;0.50;;
19448;SDS011;9863;49.404;8.246;2022-08-03T03:47:53;0.70;;;0.63;;
19448;SDS011;9863;49.404;8.246;2022-08-03T03:50:42;0.50;;;0.50;;
19448;SDS011;9863;49.404;8.246;2022-08-03T03:53:31;0.50;;;0.50;;
19448;SDS011;9863;49.404;8.246;2022-08-03T03:56:19;0.60;;;0.60;;
19448;SDS011;9863;49.404;8.246;2022-08-03T03:59:08;0.40;;;0.40;;
19448;SDS011;9863;49.404;8.246;2022-08-03T04:01:57;0.60;;;0.60;;
19448;SDS011;9863;49.404;8.246;2022-08-03T04:04:45;0.82;;;0.70;;
19448;SDS011;9863;49.404;8.246;2022-08-03T04:08:00;0.60;;;0.57;;
19448;SDS011;9863;49.404;8.246;2022-08-03T04:17:14;0.60;;;0.60;;
19448;SDS011;9863;49.404;8.246;2022-08-03T04:20:03;0.43;;;0.43;;
19448;SDS011;9863;49.404;8.246;2022-08-03T04:22:53;1.08;;;0.82;;
19448;SDS011;9863;49.404;8.246;2022-08-03T04:25:42;0.57;;;0.52;;
19448;SDS011;9863;49.404;8.246;2022-08-03T04:28:31;0.50;;;0.50;;
19448;SDS011;9863;49.404;8.246;2022-08-03T04:31:21;0.70;;;0.60;;
19448;SDS011;9863;49.404;8.246;2022-08-03T04:34:10;0.93;;;0.70;;
19448;SDS011;9863;49.404;8.246;2022-08-03T04:37:00;1.02;;;0.70;;
19448;SDS011;9863;49.404;8.246;2022-08-03T04:39:54;0.85;;;0.55;;
19448;SDS011;9863;49.404;8.246;2022-08-03T04:42:44;0.73;;;0.50;;
19448;SDS011;9863;49.404;8.246;2022-08-03T04:45:35;1.00;;;0.80;;
19448;SDS011;9863;49.404;8.246;2022-08-03T04:48:24;1.05;;;0.90;;
19448;SDS011;9863;49.404;8.246;2022-08-03T04:51:12;0.70;;;0.60;;
19448;SDS011;9863;49.404;8.246;2022-08-03T04:54:01;1.52;;;1.00;;
19448;SDS011;9863;49.404;8.246;2022-08-03T04:56:50;1.10;;;0.77;;
19448;SDS011;9863;49.404;8.246;2022-08-03T04:59:38;1.05;;;0.70;;
19448;SDS011;9863;49.404;8.246;2022-08-03T05:02:27;2.22;;;1.23;;
19448;SDS011;9863;49.404;8.246;2022-08-03T05:05:16;3.47;;;1.38;;
19448;SDS011;9863;49.404;8.246;2022-08-03T05:08:05;10.05;;;3.17;;
19448;SDS011;9863;49.404;8.246;2022-08-03T05:10:57;2.17;;;1.10;;
19448;SDS011;9863;49.404;8.246;2022-08-03T05:13:46;2.80;;;1.20;;
19448;SDS011;9863;49.404;8.246;2022-08-03T05:16:34;2.33;;;1.10;;
19448;SDS011;9863;49.404;8.246;2022-08-03T05:19:23;3.25;;;1.30;;
19448;SDS011;9863;49.404;8.246;2022-08-03T05:22:11;3.55;;;1.40;;
19448;SDS011;9863;49.404;8.246;2022-08-03T05:25:00;2.90;;;1.27;;
19448;SDS011;9863;49.404;8.246;2022-08-03T05:27:49;4.28;;;1.60;;
19448;SDS011;9863;49.404;8.246;2022-08-03T05:30:38;2.80;;;1.20;;
19448;SDS011;9863;49.404;8.246;2022-08-03T05:33:26;4.90;;;1.83;;
19448;SDS011;9863;49.404;8.246;2022-08-03T05:36:15;3.35;;;1.40;;
19448;SDS011;9863;49.404;8.246;2022-08-03T05:39:03;7.53;;;2.20;;
19448;SDS011;9863;49.404;8.246;2022-08-03T05:41:51;8.35;;;2.10;;
19448;SDS011;9863;49.404;8.246;2022-08-03T05:44:40;14.10;;;3.67;;
19448;SDS011;9863;49.404;8.246;2022-08-03T05:47:28;8.40;;;1.95;;
19448;SDS011;9863;49.404;8.246;2022-08-03T05:50:17;7.55;;;1.73;;
19448;SDS011;9863;49.404;8.246;2022-08-03T05:53:07;3.92;;;1.00;;
19448;SDS011;9863;49.404;8.246;2022-08-03T05:55:55;8.32;;;1.88;;
19448;SDS011;9863;49.404;8.246;2022-08-03T05:58:59;6.35;;;1.48;;
19448;SDS011;9863;49.404;8.246;2022-08-03T06:02:07;7.18;;;1.63;;
19448;SDS011;9863;49.404;8.246;2022-08-03T06:04:56;7.55;;;1.70;;
19448;SDS011;9863;49.404;8.246;2022-08-03T06:07:44;6.63;;;1.55;;
19448;SDS011;9863;49.404;8.246;2022-08-03T06:10:33;10.18;;;2.28;;
19448;SDS011;9863;49.404;8.246;2022-08-03T06:13:24;10.20;;;2.38;;
19448;SDS011;9863;49.404;8.246;2022-08-03T06:16:13;16.92;;;3.90;;
19448;SDS011;9863;49.404;8.246;2022-08-03T06:19:01;6.63;;;1.48;;
19448;SDS011;9863;49.404;8.246;2022-08-03T06:21:50;8.07;;;1.83;;
19448;SDS011;9863;49.404;8.246;2022-08-03T06:24:39;14.60;;;3.45;;
19448;SDS011;9863;49.404;8.246;2022-08-03T06:27:39;7.78;;;2.17;;
19448;SDS011;9863;49.404;8.246;2022-08-03T06:30:28;22.80;;;4.95;;
19448;SDS011;9863;49.404;8.246;2022-08-03T06:33:16;6.10;;;1.48;;
19448;SDS011;9863;49.404;8.246;2022-08-03T06:36:05;11.73;;;2.42;;
19448;SDS011;9863;49.404;8.246;2022-08-03T06:38:54;10.18;;;2.05;;
19448;SDS011;9863;49.404;8.246;2022-08-03T06:41:42;9.02;;;1.80;;
19448;SDS011;9863;49.404;8.246;2022-08-03T06:44:31;16.10;;;3.45;;
19448;SDS011;9863;49.404;8.246;2022-08-03T06:47:19;10.93;;;2.80;;
19448;SDS011;9863;49.404;8.246;2022-08-03T06:50:08;6.28;;;1.33;;
19448;SDS011;9863;49.404;8.246;2022-08-03T06:53:04;5.93;;;1.20;;
19448;SDS011;9863;49.404;8.246;2022-08-03T06:55:52;8.07;;;1.92;;
19448;SDS011;9863;49.404;8.246;2022-08-03T06:58:41;12.05;;;2.53;;
19448;SDS011;9863;49.404;8.246;2022-08-03T07:01:30;11.95;;;2.50;;
19448;SDS011;9863;49.404;8.246;2022-08-03T07:04:18;17.48;;;3.63;;
19448;SDS011;9863;49.404;8.246;2022-08-03T07:07:07;6.35;;;1.42;;
19448;SDS011;9863;49.404;8.246;2022-08-03T07:09:56;7.18;;;1.73;;
19448;SDS011;9863;49.404;8.246;2022-08-03T07:12:44;6.88;;;1.70;;
19448;SDS011;9863;49.404;8.246;2022-08-03T07:15:42;7.40;;;1.67;;
19448;SDS011;9863;49.404;8.246;2022-08-03T07:18:42;8.07;;;1.90;;
19448;SDS011;9863;49.404;8.246;2022-08-03T07:21:30;4.20;;;1.00;;
19448;SDS011;9863;49.404;8.246;2022-08-03T07:24:18;3.78;;;1.00;;
19448;SDS011;9863;49.404;8.246;2022-08-03T07:27:07;1.92;;;0.50;;
19448;SDS011;9863;49.404;8.246;2022-08-03T07:29:56;5.75;;;1.45;;
19448;SDS011;9863;49.404;8.246;2022-08-03T07:32:45;6.80;;;1.83;;
19448;SDS011;9863;49.404;8.246;2022-08-03T07:35:37;7.82;;;2.00;;
19448;SDS011;9863;49.404;8.246;2022-08-03T07:38:25;4.07;;;1.00;;
19448;SDS011;9863;49.404;8.246;2022-08-03T07:41:13;9.63;;;2.42;;
19448;SDS011;9863;49.404;8.246;2022-08-03T07:44:02;8.95;;;2.30;;
19448;SDS011;9863;49.404;8.246;2022-08-03T07:46:51;6.95;;;1.70;;
19448;SDS011;9863;49.404;8.246;2022-08-03T07:49:40;6.65;;;1.80;;
19448;SDS011;9863;49.404;8.246;2022-08-03T07:52:28;6.55;;;1.63;;
19448;SDS011;9863;49.404;8.246;2022-08-03T07:55:35;9.80;;;2.40;;
19448;SDS011;9863;49.404;8.246;2022-08-03T07:58:24;6.10;;;1.40;;
19448;SDS011;9863;49.404;8.246;2022-08-03T08:01:12;11.75;;;2.65;;
19448;SDS011;9863;49.404;8.246;2022-08-03T08:04:01;6.32;;;1.50;;
19448;SDS011;9863;49.404;8.246;2022-08-03T08:06:50;8.48;;;2.10;;
19448;SDS011;9863;49.404;8.246;2022-08-03T08:09:38;5.28;;;1.30;;
19448;SDS011;9863;49.404;8.246;2022-08-03T08:12:27;9.02;;;2.22;;
19448;SDS011;9863;49.404;8.246;2022-08-03T08:15:15;8.38;;;1.90;;
19448;SDS011;9863;49.404;8.246;2022-08-03T08:18:03;7.40;;;1.95;;
19448;SDS011;9863;49.404;8.246;2022-08-03T08:20:52;6.25;;;1.80;;
19448;SDS011;9863;49.404;8.246;2022-08-03T08:23:42;6.13;;;1.60;;
19448;SDS011;9863;49.404;8.246;2022-08-03T08:26:43;6.07;;;1.58;;
19448;SDS011;9863;49.404;8.246;2022-08-03T08:29:31;6.18;;;1.65;;
19448;SDS011;9863;49.404;8.246;2022-08-03T08:32:21;6.43;;;1.60;;
19448;SDS011;9863;49.404;8.246;2022-08-03T08:35:09;5.40;;;1.35;;
19448;SDS011;9863;49.404;8.246;2022-08-03T08:37:59;7.93;;;1.95;;
19448;SDS011;9863;49.404;8.246;2022-08-03T08:40:53;6.78;;;1.75;;
19448;SDS011;9863;49.404;8.246;2022-08-03T08:43:42;5.13;;;1.50;;
19448;SDS011;9863;49.404;8.246;2022-08-03T08:46:31;4.28;;;1.10;;
19448;SDS011;9863;49.404;8.246;2022-08-03T08:49:20;11.88;;;2.88;;
19448;SDS011;9863;49.404;8.246;2022-08-03T08:52:14;12.27;;;2.72;;
19448;SDS011;9863;49.404;8.246;2022-08-03T08:55:21;8.88;;;2.13;;
19448;SDS011;9863;49.404;8.246;2022-08-03T08:58:11;6.65;;;1.52;;
19448;SDS011;9863;49.404;8.246;2022-08-03T09:01:07;12.82;;;2.88;;
19448;SDS011;9863;49.404;8.246;2022-08-03T09:03:55;8.65;;;1.95;;
19448;SDS011;9863;49.404;8.246;2022-08-03T09:06:44;11.30;;;2.55;;
19448;SDS011;9863;49.404;8.246;2022-08-03T09:09:52;9.50;;;2.20;;
19448;SDS011;9863;49.404;8.246;2022-08-03T09:12:58;9.43;;;2.13;;
19448;SDS011;9863;49.404;8.246;2022-08-03T09:15:47;13.00;;;2.95;;
19448;SDS011;9863;49.404;8.246;2022-08-03T09:18:48;8.50;;;1.83;;
19448;SDS011;9863;49.404;8.246;2022-08-03T09:21:39;10.98;;;2.75;;
19448;SDS011;9863;49.404;8.246;2022-08-03T09:24:27;12.15;;;2.72;;
19448;SDS011;9863;49.404;8.246;2022-08-03T09:27:28;11.20;;;2.50;;
19448;SDS011;9863;49.404;8.246;2022-08-03T09:30:17;5.18;;;1.17;;
19448;SDS011;9863;49.404;8.246;2022-08-03T09:33:21;7.65;;;1.75;;
19448;SDS011;9863;49.404;8.246;2022-08-03T09:36:41;7.95;;;1.77;;
19448;SDS011;9863;49.404;8.246;2022-08-03T09:39:35;9.85;;;1.98;;
19448;SDS011;9863;49.404;8.246;2022-08-03T09:42:28;9.30;;;1.92;;
19448;SDS011;9863;49.404;8.246;2022-08-03T09:45:35;13.40;;;3.15;;
19448;SDS011;9863;49.404;8.246;2022-08-03T09:48:26;7.28;;;1.83;;
19448;SDS011;9863;49.404;8.246;2022-08-03T09:51:19;9.02;;;2.08;;
19448;SDS011;9863;49.404;8.246;2022-08-03T09:54:31;15.73;;;3.67;;
19448;SDS011;9863;49.404;8.246;2022-08-03T09:57:24;7.78;;;1.77;;
19448;SDS011;9863;49.404;8.246;2022-08-03T10:00:14;8.38;;;2.10;;
19448;SDS011;9863;49.404;8.246;2022-08-03T10:03:04;4.53;;;1.15;;
19448;SDS011;9863;49.404;8.246;2022-08-03T10:05:52;8.23;;;1.83;;
19448;SDS011;9863;49.404;8.246;2022-08-03T10:08:46;7.93;;;1.75;;
19448;SDS011;9863;49.404;8.246;2022-08-03T10:11:54;10.13;;;2.22;;
19448;SDS011;9863;49.404;8.246;2022-08-03T10:14:42;7.57;;;1.77;;
19448;SDS011;9863;49.404;8.246;2022-08-03T10:17:34;3.97;;;0.90;;
19448;SDS011;9863;49.404;8.246;2022-08-03T10:20:26;12.32;;;2.55;;
19448;SDS011;9863;49.404;8.246;2022-08-03T10:23:16;8.75;;;1.92;;
19448;SDS011;9863;49.404;8.246;2022-08-03T10:26:06;10.85;;;2.42;;
19448;SDS011;9863;49.404;8.246;2022-08-03T10:28:54;8.95;;;1.98;;
19448;SDS011;9863;49.404;8.246;2022-08-03T10:31:47;6.50;;;1.58;;
19448;SDS011;9863;49.404;8.246;2022-08-03T10:34:44;11.52;;;2.50;;
19448;SDS011;9863;49.404;8.246;2022-08-03T10:37:59;8.77;;;1.88;;
19448;SDS011;9863;49.404;8.246;2022-08-03T10:40:54;4.28;;;0.88;;
19448;SDS011;9863;49.404;8.246;2022-08-03T10:43:55;13.50;;;2.80;;
19448;SDS011;9863;49.404;8.246;2022-08-03T10:46:50;6.63;;;1.45;;
19448;SDS011;9863;49.404;8.246;2022-08-03T10:49:39;12.65;;;2.80;;
19448;SDS011;9863;49.404;8.246;2022-08-03T10:52:29;12.63;;;2.58;;
19448;SDS011;9863;49.404;8.246;2022-08-03T10:55:29;10.65;;;2.20;;
19448;SDS011;9863;49.404;8.246;2022-08-03T11:04:47;12.73;;;2.45;;
19448;SDS011;9863;49.404;8.246;2022-08-03T11:08:22;12.95;;;2.65;;
19448;SDS011;9863;49.404;8.246;2022-08-03T11:14:09;9.18;;;2.10;;
19448;SDS011;9863;49.404;8.246;2022-08-03T11:17:08;6.82;;;1.70;;
19448;SDS011;9863;49.404;8.246;2022-08-03T11:20:00;12.40;;;2.88;;
19448;SDS011;9863;49.404;8.246;2022-08-03T11:22:51;10.88;;;2.33;;
19448;SDS011;9863;49.404;8.246;2022-08-03T11:35:56;8.43;;;1.75;;
19448;SDS011;9863;49.404;8.246;2022-08-03T11:45:13;7.55;;;1.67;;
19448;SDS011;9863;49.404;8.246;2022-08-03T11:48:14;7.93;;;1.58;;
19448;SDS011;9863;49.404;8.246;2022-08-03T11:51:04;10.73;;;2.00;;
19448;SDS011;9863;49.404;8.246;2022-08-03T11:54:11;21.13;;;6.22;;
19448;SDS011;9863;49.404;8.246;2022-08-03T11:57:00;13.68;;;3.45;;
19448;SDS011;9863;49.404;8.246;2022-08-03T11:59:48;15.57;;;3.55;;
19448;SDS011;9863;49.404;8.246;2022-08-03T12:02:37;13.02;;;3.60;;
19448;SDS011;9863;49.404;8.246;2022-08-03T12:05:38;21.95;;;18.90;;
19448;SDS011;9863;49.404;8.246;2022-08-03T12:08:39;21.05;;;17.10;;
19448;SDS011;9863;49.404;8.246;2022-08-03T12:11:29;13.60;;;6.82;;
19448;SDS011;9863;49.404;8.246;2022-08-03T12:14:18;14.95;;;3.63;;
19448;SDS011;9863;49.404;8.246;2022-08-03T12:17:36;12.13;;;2.35;;
19448;SDS011;9863;49.404;8.246;2022-08-03T12:20:28;9.23;;;1.92;;
19448;SDS011;9863;49.404;8.246;2022-08-03T12:23:21;8.75;;;1.83;;
19448;SDS011;9863;49.404;8.246;2022-08-03T12:26:10;10.30;;;2.22;;
19448;SDS011;9863;49.404;8.246;2022-08-03T12:28:58;7.85;;;1.83;;
19448;SDS011;9863;49.404;8.246;2022-08-03T12:31:48;5.40;;;1.45;;
19448;SDS011;9863;49.404;8.246;2022-08-03T12:34:46;14.43;;;3.20;;
19448;SDS011;9863;49.404;8.246;2022-08-03T12:37:36;11.10;;;2.38;;
19448;SDS011;9863;49.404;8.246;2022-08-03T12:40:24;4.05;;;1.20;;
19448;SDS011;9863;49.404;8.246;2022-08-03T12:43:14;2.67;;;0.95;;
19448;SDS011;9863;49.404;8.246;2022-08-03T12:46:07;3.45;;;1.30;;
19448;SDS011;9863;49.404;8.246;2022-08-03T12:54:40;4.43;;;1.73;;
19448;SDS011;9863;49.404;8.246;2022-08-03T12:57:39;4.93;;;1.48;;
19448;SDS011;9863;49.404;8.246;2022-08-03T13:00:29;6.13;;;1.95;;
19448;SDS011;9863;49.404;8.246;2022-08-03T13:03:18;5.80;;;1.52;;
19448;SDS011;9863;49.404;8.246;2022-08-03T13:06:26;4.75;;;1.40;;
19448;SDS011;9863;49.404;8.246;2022-08-03T13:09:15;4.30;;;1.42;;
19448;SDS011;9863;49.404;8.246;2022-08-03T13:15:02;5.40;;;1.52;;
19448;SDS011;9863;49.404;8.246;2022-08-03T13:17:51;3.58;;;1.10;;
19448;SDS011;9863;49.404;8.246;2022-08-03T13:20:41;5.15;;;1.50;;
19448;SDS011;9863;49.404;8.246;2022-08-03T13:23:30;6.97;;;1.50;;
19448;SDS011;9863;49.404;8.246;2022-08-03T13:26:18;4.25;;;0.90;;
19448;SDS011;9863;49.404;8.246;2022-08-03T13:29:07;9.60;;;2.00;;
19448;SDS011;9863;49.404;8.246;2022-08-03T13:31:55;8.40;;;1.60;;
19448;SDS011;9863;49.404;8.246;2022-08-03T13:34:43;10.25;;;2.05;;
19448;SDS011;9863;49.404;8.246;2022-08-03T13:37:32;12.27;;;2.33;;
19448;SDS011;9863;49.404;8.246;2022-08-03T13:40:21;9.80;;;2.03;;
19448;SDS011;9863;49.404;8.246;2022-08-03T13:43:20;9.95;;;2.00;;
19448;SDS011;9863;49.404;8.246;2022-08-03T13:46:09;4.70;;;1.00;;
19448;SDS011;9863;49.404;8.246;2022-08-03T13:48:57;13.63;;;2.88;;
19448;SDS011;9863;49.404;8.246;2022-08-03T13:51:45;9.45;;;1.90;;
19448;SDS011;9863;49.404;8.246;2022-08-03T13:54:34;16.15;;;3.33;;
19448;SDS011;9863;49.404;8.246;2022-08-03T13:57:22;8.10;;;2.10;;
19448;SDS011;9863;49.404;8.246;2022-08-03T14:00:31;17.35;;;3.58;;
19448;SDS011;9863;49.404;8.246;2022-08-03T14:03:19;12.55;;;2.63;;
19448;SDS011;9863;49.404;8.246;2022-08-03T14:06:09;10.32;;;2.15;;
19448;SDS011;9863;49.404;8.246;2022-08-03T14:08:57;8.55;;;1.73;;
19448;SDS011;9863;49.404;8.246;2022-08-03T14:11:46;8.68;;;1.75;;
19448;SDS011;9863;49.404;8.246;2022-08-03T14:14:54;7.57;;;1.65;;
19448;SDS011;9863;49.404;8.246;2022-08-03T14:17:47;8.82;;;1.98;;
19448;SDS011;9863;49.404;8.246;2022-08-03T14:20:36;7.07;;;1.65;;
19448;SDS011;9863;49.404;8.246;2022-08-03T14:23:37;14.73;;;3.10;;
19448;SDS011;9863;49.404;8.246;2022-08-03T14:26:26;11.50;;;2.38;;
19448;SDS011;9863;49.404;8.246;2022-08-03T14:29:14;18.40;;;3.92;;
19448;SDS011;9863;49.404;8.246;2022-08-03T14:32:03;11.38;;;2.30;;
19448;SDS011;9863;49.404;8.246;2022-08-03T14:34:58;9.63;;;1.90;;
19448;SDS011;9863;49.404;8.246;2022-08-03T14:37:47;11.88;;;2.30;;
19448;SDS011;9863;49.404;8.246;2022-08-03T14:40:35;7.38;;;1.52;;
19448;SDS011;9863;49.404;8.246;2022-08-03T14:43:24;12.15;;;2.50;;
19448;SDS011;9863;49.404;8.246;2022-08-03T14:46:20;11.90;;;2.30;;
19448;SDS011;9863;49.404;8.246;2022-08-03T14:49:09;11.32;;;2.15;;
19448;SDS011;9863;49.404;8.246;2022-08-03T14:52:17;17.40;;;3.50;;
19448;SDS011;9863;49.404;8.246;2022-08-03T14:55:06;13.93;;;2.72;;
19448;SDS011;9863;49.404;8.246;2022-08-03T14:57:54;9.52;;;1.90;;
19448;SDS011;9863;49.404;8.246;2022-08-03T15:00:43;9.40;;;1.83;;
19448;SDS011;9863;49.404;8.246;2022-08-03T15:03:31;11.20;;;2.28;;
19448;SDS011;9863;49.404;8.246;2022-08-03T15:06:20;7.50;;;1.50;;
19448;SDS011;9863;49.404;8.246;2022-08-03T15:09:08;8.95;;;1.70;;
19448;SDS011;9863;49.404;8.246;2022-08-03T15:12:10;9.63;;;2.10;;
19448;SDS011;9863;49.404;8.246;2022-08-03T15:14:58;5.20;;;1.10;;
19448;SDS011;9863;49.404;8.246;2022-08-03T15:17:47;10.07;;;2.38;;
19448;SDS011;9863;49.404;8.246;2022-08-03T15:20:47;9.23;;;2.05;;
19448;SDS011;9863;49.404;8.246;2022-08-03T15:23:36;9.88;;;2.47;;
19448;SDS011;9863;49.404;8.246;2022-08-03T15:26:25;5.85;;;1.35;;
19448;SDS011;9863;49.404;8.246;2022-08-03T15:29:20;8.50;;;1.77;;
19448;SDS011;9863;49.404;8.246;2022-08-03T15:32:28;10.70;;;2.25;;
19448;SDS011;9863;49.404;8.246;2022-08-03T15:35:17;7.22;;;1.52;;
19448;SDS011;9863;49.404;8.246;2022-08-03T15:38:05;9.73;;;2.15;;
19448;SDS011;9863;49.404;8.246;2022-08-03T15:40:56;10.38;;;2.08;;
19448;SDS011;9863;49.404;8.246;2022-08-03T15:43:45;9.32;;;2.03;;
19448;SDS011;9863;49.404;8.246;2022-08-03T15:46:34;7.35;;;1.50;;
19448;SDS011;9863;49.404;8.246;2022-08-03T15:49:22;11.13;;;2.25;;
19448;SDS011;9863;49.404;8.246;2022-08-03T15:52:10;14.27;;;2.85;;
19448;SDS011;9863;49.404;8.246;2022-08-03T15:54:59;13.07;;;2.50;;
19448;SDS011;9863;49.404;8.246;2022-08-03T15:57:47;11.35;;;2.33;;
19448;SDS011;9863;49.404;8.246;2022-08-03T16:00:56;7.78;;;1.60;;
19448;SDS011;9863;49.404;8.246;2022-08-03T16:03:46;11.05;;;2.25;;
19448;SDS011;9863;49.404;8.246;2022-08-03T16:06:34;11.40;;;2.17;;
19448;SDS011;9863;49.404;8.246;2022-08-03T16:09:23;16.42;;;3.17;;
19448;SDS011;9863;49.404;8.246;2022-08-03T16:12:29;12.20;;;2.40;;
19448;SDS011;9863;49.404;8.246;2022-08-03T16:15:18;15.48;;;3.17;;
19448;SDS011;9863;49.404;8.246;2022-08-03T16:18:06;8.80;;;1.77;;
19448;SDS011;9863;49.404;8.246;2022-08-03T16:20:54;11.77;;;2.33;;
19448;SDS011;9863;49.404;8.246;2022-08-03T16:23:44;12.48;;;2.42;;
19448;SDS011;9863;49.404;8.246;2022-08-03T16:26:33;9.65;;;2.03;;
19448;SDS011;9863;49.404;8.246;2022-08-03T16:29:22;9.88;;;2.05;;
19448;SDS011;9863;49.404;8.246;2022-08-03T16:32:10;10.00;;;2.17;;
19448;SDS011;9863;49.404;8.246;2022-08-03T16:34:59;7.25;;;1.77;;
19448;SDS011;9863;49.404;8.246;2022-08-03T16:37:47;9.07;;;2.10;;
19448;SDS011;9863;49.404;8.246;2022-08-03T16:40:43;12.38;;;2.70;;
19448;SDS011;9863;49.404;8.246;2022-08-03T16:43:33;12.07;;;2.45;;
19448;SDS011;9863;49.404;8.246;2022-08-03T16:46:21;11.85;;;2.78;;
19448;SDS011;9863;49.404;8.246;2022-08-03T16:49:10;22.20;;;19.05;;
19448;SDS011;9863;49.404;8.246;2022-08-03T16:52:19;74.70;;;68.15;;
19448;SDS011;9863;49.404;8.246;2022-08-03T16:55:09;16.17;;;4.82;;
19448;SDS011;9863;49.404;8.246;2022-08-03T16:58:02;10.32;;;2.50;;
19448;SDS011;9863;49.404;8.246;2022-08-03T17:00:52;11.38;;;2.25;;
19448;SDS011;9863;49.404;8.246;2022-08-03T17:03:43;13.32;;;2.72;;
19448;SDS011;9863;49.404;8.246;2022-08-03T17:06:50;10.38;;;2.10;;
19448;SDS011;9863;49.404;8.246;2022-08-03T17:09:38;7.00;;;1.58;;
19448;SDS011;9863;49.404;8.246;2022-08-03T17:12:26;11.23;;;2.33;;
19448;SDS011;9863;49.404;8.246;2022-08-03T17:15:17;10.25;;;2.05;;
19448;SDS011;9863;49.404;8.246;2022-08-03T17:18:24;11.27;;;2.20;;
19448;SDS011;9863;49.404;8.246;2022-08-03T17:21:16;11.02;;;2.22;;
19448;SDS011;9863;49.404;8.246;2022-08-03T17:24:21;14.85;;;2.97;;
19448;SDS011;9863;49.404;8.246;2022-08-03T17:27:19;13.63;;;2.70;;
19448;SDS011;9863;49.404;8.246;2022-08-03T17:30:38;8.82;;;1.80;;
19448;SDS011;9863;49.404;8.246;2022-08-03T17:33:46;10.65;;;2.13;;
19448;SDS011;9863;49.404;8.246;2022-08-03T17:36:42;7.85;;;1.60;;
19448;SDS011;9863;49.404;8.246;2022-08-03T17:39:51;12.88;;;2.55;;
19448;SDS011;9863;49.404;8.246;2022-08-03T17:42:46;4.65;;;1.02;;
19448;SDS011;9863;49.404;8.246;2022-08-03T17:45:37;7.25;;;1.55;;
19448;SDS011;9863;49.404;8.246;2022-08-03T17:48:40;10.10;;;2.00;;
19448;SDS011;9863;49.404;8.246;2022-08-03T17:58:24;10.93;;;2.05;;
19448;SDS011;9863;49.404;8.246;2022-08-03T18:08:55;6.20;;;1.23;;
19448;SDS011;9863;49.404;8.246;2022-08-03T18:11:52;9.88;;;1.95;;
19448;SDS011;9863;49.404;8.246;2022-08-03T18:14:50;2.10;;;0.40;;
19448;SDS011;9863;49.404;8.246;2022-08-03T18:17:55;5.72;;;1.17;;
19448;SDS011;9863;49.404;8.246;2022-08-03T18:20:59;7.13;;;1.38;;
19448;SDS011;9863;49.404;8.246;2022-08-03T18:23:55;4.88;;;1.00;;
19448;SDS011;9863;49.404;8.246;2022-08-03T18:26:45;6.70;;;1.40;;
19448;SDS011;9863;49.404;8.246;2022-08-03T18:29:36;10.32;;;2.20;;
19448;SDS011;9863;49.404;8.246;2022-08-03T18:32:26;7.18;;;1.45;;
19448;SDS011;9863;49.404;8.246;2022-08-03T18:35:19;17.05;;;3.55;;